KDKK/DKK METAR and TAF weather

Enter ICAO airport designator
Station Type Date Time Source
KDKK METAR 2021/09/16 09:53 UTC NOAA

KDKK 160953Z AUTO 00000KT 7SM 12/11 A3017 RMK AO2 SLP216 T01170106 $


Station Type Date Time Source
KDKK Decoded METAR 2021/09/16 09:53 UTC NOAA

CHAUTAUQUA COUNTY/DUNKIRK, NY, United States (KDKK) 42-30N 079-17W 202M
Sep 16, 2021 - 05:53 AM EDT / 2021.09.16 0953 UTC
Wind: Calm:0
Visibility: 7 mile(s):0
Temperature: 53.1 F (11.7 C)
Dew Point: 51.1 F (10.6 C)
Relative Humidity: 92%
Pressure (altimeter): 30.17 in. Hg (1021 hPa)
ob: KDKK 160953Z AUTO 00000KT 7SM 12/11 A3017 RMK AO2 SLP216 T01170106
cycle: 10

Station Type Date Time Source
KDKK TAF UTC NOAA

Error!

Example: see airport list